createdAt,value
2023-09-09T00:02:36.996Z,7.45
2023-09-09T00:05:04.947Z,8.13
2023-09-09T00:07:32.487Z,7.20
2023-09-09T00:10:00.063Z,8.55
2023-09-09T00:12:27.630Z,8.15
2023-09-09T00:14:55.125Z,7.32
2023-09-09T00:17:22.640Z,8.07
2023-09-09T00:19:52.746Z,7.38
2023-09-09T00:22:20.250Z,7.85
2023-09-09T00:24:47.703Z,8.02
2023-09-09T00:27:15.193Z,8.10
2023-09-09T00:32:10.427Z,8.07
2023-09-09T00:34:37.955Z,8.20
2023-09-09T00:37:07.041Z,7.55
2023-09-09T00:39:34.529Z,8.23
2023-09-09T00:42:02.104Z,8.10
2023-09-09T00:44:29.838Z,7.80
2023-09-09T00:46:57.584Z,7.70
2023-09-09T00:49:25.293Z,8.40
2023-09-09T00:51:53.252Z,7.38
2023-09-09T00:54:22.217Z,8.15
2023-09-09T00:56:51.380Z,8.32
2023-09-09T00:59:18.927Z,8.57
2023-09-09T01:01:46.598Z,7.38
2023-09-09T01:04:14.210Z,7.97
2023-09-09T01:06:41.829Z,7.30
2023-09-09T01:09:09.783Z,7.80
2023-09-09T01:11:39.001Z,7.80
2023-09-09T01:14:06.615Z,7.13
2023-09-09T01:16:34.277Z,7.40
2023-09-09T01:19:02.195Z,7.78
2023-09-09T01:21:31.095Z,8.07
2023-09-09T01:24:00.009Z,7.60
2023-09-09T01:26:27.497Z,7.50
2023-09-09T01:28:55.014Z,8.38
2023-09-09T01:31:22.721Z,8.00
2023-09-09T01:33:51.965Z,7.68
2023-09-09T01:36:19.754Z,7.65
2023-09-09T01:38:47.388Z,7.70
2023-09-09T01:46:11.783Z,7.05
2023-09-09T01:48:39.636Z,7.57
2023-09-09T01:51:07.474Z,8.43
2023-09-09T01:53:35.071Z,7.88
2023-09-09T01:56:02.990Z,7.82
2023-09-09T01:58:30.483Z,7.70
2023-09-09T02:00:57.998Z,7.97
2023-09-09T02:03:27.267Z,7.45
2023-09-09T02:05:54.869Z,8.73
2023-09-09T02:08:22.466Z,8.55
2023-09-09T02:10:51.167Z,7.97
2023-09-09T02:13:18.757Z,8.57
2023-09-09T02:15:46.337Z,8.10
2023-09-09T02:18:13.837Z,8.57
2023-09-09T02:20:42.682Z,8.05
2023-09-09T02:23:11.330Z,8.35
2023-09-09T02:25:39.008Z,8.82
2023-09-09T02:28:06.718Z,8.40
2023-09-09T02:30:34.196Z,8.05
2023-09-09T02:33:01.767Z,8.73
2023-09-09T02:35:29.496Z,8.35
2023-09-09T02:37:58.751Z,7.47
2023-09-09T02:40:26.323Z,8.07
2023-09-09T02:42:53.804Z,8.60
2023-09-09T02:45:21.874Z,8.43
2023-09-09T02:47:49.492Z,8.55
2023-09-09T02:50:17.005Z,8.90
2023-09-09T02:52:44.571Z,7.80
2023-09-09T02:55:13.479Z,8.60
2023-09-09T02:57:41.068Z,8.07
2023-09-09T03:00:09.431Z,8.65
2023-09-09T03:02:37.294Z,8.13
2023-09-09T03:05:05.370Z,9.20
2023-09-09T03:10:00.351Z,8.32
2023-09-09T03:12:29.286Z,8.75
2023-09-09T03:14:56.972Z,8.20
2023-09-09T03:17:24.472Z,8.52
2023-09-09T03:19:51.990Z,7.90
2023-09-09T03:22:19.505Z,8.65
2023-09-09T03:24:47.266Z,8.57
2023-09-09T03:27:14.834Z,8.85
2023-09-09T03:29:44.098Z,9.18
2023-09-09T03:32:11.873Z,8.55
2023-09-09T03:34:40.071Z,8.40
2023-09-09T03:37:08.142Z,8.82
2023-09-09T03:39:35.707Z,9.05
2023-09-09T03:42:03.242Z,8.23
2023-09-09T03:44:30.851Z,7.80
2023-09-09T03:46:59.693Z,8.45
2023-09-09T03:49:27.582Z,8.85
2023-09-09T03:54:22.531Z,8.00
2023-09-09T04:01:45.652Z,8.70
2023-09-09T04:06:42.080Z,9.02
2023-09-09T04:09:10.526Z,8.95
2023-09-09T04:11:38.047Z,8.30
2023-09-09T04:14:05.641Z,8.95
2023-09-09T04:16:33.287Z,7.95
2023-09-09T04:19:00.917Z,8.05
2023-09-09T04:21:29.275Z,7.78
2023-09-09T04:23:58.130Z,8.50
2023-09-09T04:26:25.726Z,7.68
2023-09-09T04:28:53.633Z,8.68
2023-09-09T04:31:21.340Z,7.95
2023-09-09T04:33:49.526Z,7.82
2023-09-09T04:36:17.094Z,9.10
2023-09-09T04:38:44.664Z,8.98
2023-09-09T04:41:13.598Z,8.40
2023-09-09T04:43:41.415Z,8.18
2023-09-09T04:46:09.236Z,8.32
2023-09-09T04:48:37.258Z,8.25
2023-09-09T04:51:04.963Z,8.80
2023-09-09T04:53:32.734Z,9.35
2023-09-09T04:56:01.908Z,8.43
2023-09-09T04:58:32.795Z,7.90
2023-09-09T05:01:00.908Z,7.53
2023-09-09T05:03:29.520Z,8.13
2023-09-09T05:05:57.073Z,8.95
2023-09-09T05:08:24.639Z,7.68
2023-09-09T05:10:52.188Z,8.75
2023-09-09T05:13:19.760Z,8.20
2023-09-09T05:15:49.083Z,7.82
2023-09-09T05:18:16.604Z,8.25
2023-09-09T05:20:44.172Z,7.32
2023-09-09T05:25:39.313Z,7.97
2023-09-09T05:28:07.062Z,7.85
2023-09-09T05:30:35.076Z,7.72
2023-09-09T05:35:31.656Z,8.50
2023-09-09T05:37:59.193Z,7.60
2023-09-09T05:40:26.995Z,8.13
2023-09-09T05:42:54.563Z,6.97
2023-09-09T05:45:22.279Z,8.35
2023-09-09T05:47:49.772Z,7.80
2023-09-09T05:50:17.819Z,7.60
2023-09-09T05:52:46.882Z,8.38
2023-09-09T05:55:15.015Z,8.07
2023-09-09T05:57:42.533Z,8.48
2023-09-09T06:00:10.977Z,7.85
2023-09-09T06:02:44.281Z,6.78
2023-09-09T06:05:12.490Z,7.90
2023-09-09T06:07:42.336Z,8.00
2023-09-09T06:10:12.553Z,7.80
2023-09-09T06:12:40.043Z,8.18
2023-09-09T06:15:08.181Z,7.75
2023-09-09T06:17:37.372Z,8.35
2023-09-09T06:20:05.921Z,7.82
2023-09-09T06:22:35.356Z,7.95
2023-09-09T06:25:04.708Z,7.60
2023-09-09T06:27:34.186Z,7.80
2023-09-09T06:30:01.668Z,8.43
2023-09-09T06:32:29.530Z,8.15
2023-09-09T06:34:57.047Z,8.23
2023-09-09T06:37:25.575Z,7.88
2023-09-09T06:39:53.039Z,7.68
2023-09-09T06:42:20.522Z,9.05
2023-09-09T06:44:53.887Z,8.63
2023-09-09T06:47:21.399Z,8.77
2023-09-09T06:49:49.837Z,8.85
2023-09-09T06:52:17.734Z,7.88
2023-09-09T06:54:45.877Z,8.90
2023-09-09T06:57:13.314Z,8.93
2023-09-09T06:59:41.361Z,11.63
2023-09-09T07:02:10.327Z,10.65
2023-09-09T07:04:37.872Z,7.90
2023-09-09T07:07:13.411Z,9.93
2023-09-09T07:09:42.449Z,7.83
2023-09-09T07:12:11.310Z,9.32
2023-09-09T07:14:41.646Z,8.50
2023-09-09T07:17:11.330Z,8.45
2023-09-09T07:19:38.926Z,8.45
2023-09-09T07:22:07.304Z,8.20
2023-09-09T07:24:34.882Z,7.32
2023-09-09T07:27:03.092Z,7.55
2023-09-09T07:29:30.661Z,7.93
2023-09-09T07:31:58.223Z,8.18
2023-09-09T07:34:27.531Z,7.95
2023-09-09T07:36:55.001Z,7.95
2023-09-09T07:39:22.504Z,8.52
2023-09-09T07:41:49.952Z,7.60
2023-09-09T07:44:17.427Z,8.43
2023-09-09T07:46:45.238Z,9.10
2023-09-09T07:51:41.446Z,7.35
2023-09-09T07:54:09.968Z,7.93
2023-09-09T07:56:37.540Z,7.07
2023-09-09T07:59:05.088Z,6.70
2023-09-09T08:01:32.654Z,6.80
2023-09-09T08:04:00.355Z,7.07
2023-09-09T08:06:28.197Z,8.23
2023-09-09T08:08:57.119Z,7.15
2023-09-09T08:11:24.650Z,7.13
2023-09-09T08:13:52.309Z,6.80
2023-09-09T08:18:47.705Z,6.78
2023-09-09T08:23:42.598Z,6.20
2023-09-09T08:26:12.346Z,6.68
2023-09-09T08:28:40.948Z,6.53
2023-09-09T08:31:08.540Z,6.60
2023-09-09T08:36:05.200Z,5.82
2023-09-09T08:38:32.883Z,6.32
2023-09-09T08:46:00.973Z,5.95
2023-09-09T08:48:29.605Z,6.05
2023-09-09T08:50:58.542Z,5.53
2023-09-09T08:53:27.563Z,5.18
2023-09-09T08:55:56.272Z,5.68
2023-09-09T08:58:23.870Z,5.85
2023-09-09T09:08:15.007Z,5.72
2023-09-09T09:10:42.751Z,5.82
2023-09-09T09:13:10.389Z,5.43
2023-09-09T09:18:07.332Z,6.10
2023-09-09T09:20:39.674Z,6.05
2023-09-09T09:23:07.502Z,5.65
2023-09-09T09:25:38.511Z,5.18
2023-09-09T09:28:06.429Z,5.15
2023-09-09T09:30:35.223Z,5.47
2023-09-09T09:33:02.747Z,6.15
2023-09-09T09:42:53.981Z,5.20
2023-09-09T09:45:24.251Z,5.53
2023-09-09T09:47:52.027Z,5.45
2023-09-09T09:50:20.477Z,6.10
2023-09-09T09:52:56.922Z,5.68
2023-09-09T09:55:24.462Z,5.30
2023-09-09T10:00:22.599Z,5.57
2023-09-09T10:02:52.748Z,5.05
2023-09-09T10:05:21.796Z,5.53
2023-09-09T10:07:53.247Z,4.97
2023-09-09T10:10:22.027Z,6.00
2023-09-09T10:12:52.402Z,5.13
2023-09-09T10:15:22.372Z,5.60
2023-09-09T10:17:51.545Z,5.47
2023-09-09T10:20:19.569Z,5.80
2023-09-09T10:22:48.873Z,5.38
2023-09-09T10:25:17.169Z,5.03
2023-09-09T10:27:45.245Z,4.85
2023-09-09T10:30:13.000Z,5.30
2023-09-09T10:32:42.323Z,4.90
2023-09-09T10:35:10.971Z,5.05
2023-09-09T10:37:39.355Z,4.95
2023-09-09T10:40:08.557Z,5.13
2023-09-09T10:42:38.661Z,5.38
2023-09-09T10:45:28.765Z,5.32
2023-09-09T10:47:59.274Z,4.95
2023-09-09T10:50:40.470Z,4.88
2023-09-09T10:53:15.091Z,4.80
2023-09-09T10:55:42.688Z,4.78
2023-09-09T10:58:10.299Z,5.78
2023-09-09T11:00:39.761Z,4.63
2023-09-09T11:03:15.448Z,4.40
2023-09-09T11:06:03.588Z,4.85
2023-09-09T11:08:31.996Z,4.35
2023-09-09T11:11:07.513Z,4.22
2023-09-09T11:13:41.636Z,4.85
2023-09-09T11:16:09.357Z,5.68
2023-09-09T11:18:39.475Z,4.28
2023-09-09T11:21:07.431Z,4.25
2023-09-09T11:23:35.177Z,4.15
2023-09-09T11:26:03.520Z,4.18
2023-09-09T11:28:31.290Z,4.50
2023-09-09T11:30:58.833Z,4.38
2023-09-09T11:35:55.021Z,4.38
2023-09-09T11:38:22.833Z,4.53
2023-09-09T11:40:50.354Z,5.18
2023-09-09T11:43:17.804Z,4.07
2023-09-09T11:45:45.871Z,4.05
2023-09-09T11:48:15.302Z,4.03
2023-09-09T11:50:43.788Z,4.20
2023-09-09T11:53:13.384Z,3.90
2023-09-09T11:55:41.133Z,4.00
2023-09-09T11:58:08.645Z,3.90
2023-09-09T12:00:36.205Z,4.07
2023-09-09T12:03:03.872Z,3.72
2023-09-09T12:05:32.083Z,3.50
2023-09-09T12:08:00.076Z,3.80
2023-09-09T12:10:31.950Z,3.15
2023-09-09T12:12:59.775Z,3.63
2023-09-09T12:15:27.967Z,3.63
2023-09-09T12:17:55.622Z,3.10
2023-09-09T12:20:23.731Z,3.53
2023-09-09T12:22:53.184Z,3.55
2023-09-09T12:25:31.750Z,3.78
2023-09-09T12:27:59.484Z,3.33
2023-09-09T12:30:44.765Z,4.57
2023-09-09T12:33:13.403Z,3.85
2023-09-09T12:35:43.850Z,3.60
2023-09-09T12:38:12.149Z,3.80
2023-09-09T12:40:50.977Z,3.15
2023-09-09T12:43:18.758Z,3.70
2023-09-09T12:45:49.685Z,3.05
2023-09-09T12:48:17.351Z,4.32
2023-09-09T12:50:46.198Z,3.30
2023-09-09T12:53:13.961Z,5.03
2023-09-09T12:55:41.458Z,3.30
2023-09-09T12:58:10.283Z,3.28
2023-09-09T13:00:37.871Z,3.28
2023-09-09T13:03:05.833Z,3.20
2023-09-09T13:05:34.679Z,3.22
2023-09-09T13:08:02.338Z,3.13
2023-09-09T13:10:29.923Z,3.78
2023-09-09T13:12:57.442Z,3.40
2023-09-09T13:15:26.659Z,3.25
2023-09-09T13:17:54.340Z,2.67
2023-09-09T13:20:21.883Z,3.10
2023-09-09T13:22:49.466Z,3.70
2023-09-09T13:25:17.070Z,2.92
2023-09-09T13:27:44.607Z,2.97
2023-09-09T13:30:12.436Z,3.22
2023-09-09T13:32:42.291Z,3.17
2023-09-09T13:35:10.366Z,2.75
2023-09-09T13:37:38.097Z,2.97
2023-09-09T13:40:06.101Z,3.53
2023-09-09T13:42:33.621Z,2.78
2023-09-09T13:45:10.688Z,2.60
2023-09-09T13:47:38.768Z,2.85
2023-09-09T13:50:08.886Z,3.65
2023-09-09T13:52:36.426Z,3.50
2023-09-09T13:55:04.840Z,3.13
2023-09-09T13:57:33.372Z,2.80
2023-09-09T14:00:00.987Z,3.10
2023-09-09T14:02:29.702Z,2.45
2023-09-09T14:04:57.387Z,2.92
2023-09-09T14:07:26.475Z,2.83
2023-09-09T14:09:53.952Z,3.38
2023-09-09T14:12:21.456Z,2.90
2023-09-09T14:14:48.944Z,4.05
2023-09-09T14:17:16.512Z,3.22
2023-09-09T14:19:43.984Z,4.20
2023-09-09T14:22:11.520Z,3.20
2023-09-09T14:24:40.752Z,3.58
2023-09-09T14:27:08.751Z,3.30
2023-09-09T14:29:37.498Z,3.00
2023-09-09T14:32:06.417Z,4.22
2023-09-09T14:34:33.928Z,3.17
2023-09-09T14:37:01.688Z,3.75
2023-09-09T14:39:30.418Z,4.22
2023-09-09T14:41:59.338Z,3.60
2023-09-09T14:44:26.936Z,3.95
2023-09-09T14:46:54.448Z,3.80
2023-09-09T14:49:23.354Z,3.22
2023-09-09T14:51:50.839Z,4.80
2023-09-09T14:54:18.415Z,4.82
2023-09-09T14:56:45.945Z,3.60
2023-09-09T14:59:14.812Z,3.53
2023-09-09T15:01:42.330Z,3.78
2023-09-09T15:04:09.850Z,3.75
2023-09-09T15:06:37.421Z,3.50
2023-09-09T15:09:05.275Z,4.00
2023-09-09T15:11:32.826Z,3.85
2023-09-09T15:14:01.013Z,3.80
2023-09-09T15:16:43.517Z,3.55
2023-09-09T15:19:12.407Z,3.25
2023-09-09T15:21:39.975Z,4.15
2023-09-09T15:24:07.763Z,4.53
2023-09-09T15:26:35.426Z,4.05
2023-09-09T15:29:03.134Z,4.40
2023-09-09T15:31:30.644Z,4.20
2023-09-09T15:33:58.350Z,4.78
2023-09-09T15:36:27.332Z,4.22
2023-09-09T15:38:54.930Z,5.07
2023-09-09T15:41:24.191Z,5.28
2023-09-09T15:43:52.260Z,4.82
2023-09-09T15:46:20.249Z,5.22
2023-09-09T15:48:47.741Z,4.57
2023-09-09T15:51:15.242Z,5.05
2023-09-09T15:53:44.103Z,4.85
2023-09-09T15:56:12.113Z,5.18
2023-09-09T15:58:40.013Z,4.82
2023-09-09T16:01:07.803Z,4.60
2023-09-09T16:03:37.510Z,4.07
2023-09-09T16:06:06.865Z,4.40
2023-09-09T16:08:34.482Z,5.35
2023-09-09T16:11:04.137Z,4.80
2023-09-09T16:13:31.973Z,4.40
2023-09-09T16:16:00.049Z,4.55
2023-09-09T16:18:27.686Z,4.55
2023-09-09T16:20:55.598Z,4.47
2023-09-09T16:23:23.227Z,4.63
2023-09-09T16:25:50.815Z,4.50
2023-09-09T16:28:19.685Z,4.70
2023-09-09T16:30:47.447Z,5.40
2023-09-09T16:33:15.113Z,4.82
2023-09-09T16:35:43.149Z,5.57
2023-09-09T16:38:11.128Z,5.35
2023-09-09T16:40:38.997Z,5.57
2023-09-09T16:43:06.868Z,6.03
2023-09-09T16:45:35.723Z,5.53
2023-09-09T16:48:03.875Z,5.32
2023-09-09T16:50:32.131Z,5.53
2023-09-09T16:52:59.674Z,5.38
2023-09-09T16:57:54.589Z,4.93
2023-09-09T17:05:18.258Z,5.15
2023-09-09T17:07:45.831Z,5.47
2023-09-09T17:12:40.722Z,5.15
2023-09-09T17:15:08.893Z,5.70
2023-09-09T17:17:36.401Z,5.60
2023-09-09T17:20:04.648Z,5.30
2023-09-09T17:22:33.589Z,6.18
2023-09-09T17:25:01.174Z,5.90
2023-09-09T17:27:28.651Z,5.85
2023-09-09T17:29:56.148Z,5.90
2023-09-09T17:32:23.712Z,6.72
2023-09-09T17:42:14.708Z,7.70
2023-09-09T17:44:42.606Z,5.82
2023-09-09T17:47:10.147Z,5.55
2023-09-09T17:49:38.890Z,5.35
2023-09-09T17:52:08.172Z,5.57
2023-09-09T17:54:37.238Z,6.28
2023-09-09T17:57:04.783Z,5.97
2023-09-09T17:59:34.098Z,6.00
2023-09-09T18:02:01.671Z,6.18
2023-09-09T18:04:29.404Z,6.05
2023-09-09T18:09:24.313Z,7.80
2023-09-09T18:11:51.870Z,6.80
2023-09-09T18:14:19.400Z,6.53
2023-09-09T18:16:48.308Z,7.28
2023-09-09T18:19:16.111Z,6.70
2023-09-09T18:21:43.605Z,7.13
2023-09-09T18:24:11.066Z,7.22
2023-09-09T18:26:38.518Z,6.63
2023-09-09T18:29:06.117Z,6.72
2023-09-09T18:34:06.751Z,6.90
2023-09-09T18:36:34.497Z,7.55
2023-09-09T18:41:29.292Z,7.25
2023-09-09T18:43:56.802Z,7.90
2023-09-09T18:46:24.388Z,7.72
2023-09-09T18:48:52.006Z,8.35
2023-09-09T18:51:21.942Z,7.68
2023-09-09T18:53:49.766Z,8.73
2023-09-09T18:58:44.709Z,8.52
2023-09-09T19:01:13.322Z,9.00
2023-09-09T19:03:41.036Z,9.55
2023-09-09T19:08:37.640Z,9.57
2023-09-09T19:11:05.894Z,8.90
2023-09-09T19:13:34.194Z,8.85
2023-09-09T19:16:02.105Z,9.23
2023-09-09T19:18:30.012Z,8.88
2023-09-09T19:23:26.404Z,10.73
2023-09-09T19:25:55.757Z,9.65
2023-09-09T19:28:23.309Z,8.65
2023-09-09T19:30:50.817Z,10.20
2023-09-09T19:33:18.406Z,10.23
2023-09-09T19:35:45.914Z,10.95
2023-09-09T19:38:13.425Z,11.30
2023-09-09T19:40:40.951Z,11.13
2023-09-09T19:43:09.778Z,12.35
2023-09-09T19:45:38.937Z,10.52
2023-09-09T19:48:06.734Z,10.60
2023-09-09T19:53:01.563Z,10.98
2023-09-09T19:55:29.119Z,12.23
2023-09-09T19:57:56.570Z,10.68
2023-09-09T20:00:25.372Z,10.85
2023-09-09T20:02:53.070Z,11.55
2023-09-09T20:07:47.994Z,10.85
2023-09-09T20:10:15.522Z,11.45
2023-09-09T20:12:43.070Z,11.43
2023-09-09T20:15:10.770Z,12.38
2023-09-09T20:17:39.624Z,11.57
2023-09-09T20:20:14.972Z,11.55
2023-09-09T20:22:43.180Z,11.18
2023-09-09T20:25:10.880Z,11.80
2023-09-09T20:27:38.517Z,11.70
2023-09-09T20:30:06.671Z,12.20
2023-09-09T20:32:35.648Z,12.13
2023-09-09T20:35:19.155Z,12.70
2023-09-09T20:37:52.496Z,11.85
2023-09-09T20:40:21.880Z,11.25
2023-09-09T20:42:56.115Z,11.40
2023-09-09T20:45:24.875Z,11.23
2023-09-09T20:47:53.069Z,12.00
2023-09-09T20:50:22.728Z,13.07
2023-09-09T20:52:50.989Z,11.55
2023-09-09T20:55:19.011Z,12.88
2023-09-09T20:57:46.579Z,13.10
2023-09-09T21:00:16.470Z,12.63
2023-09-09T21:02:45.669Z,12.43
2023-09-09T21:05:13.590Z,11.93
2023-09-09T21:07:43.288Z,13.20
2023-09-09T21:10:11.783Z,13.10
2023-09-09T21:12:39.247Z,12.75
2023-09-09T21:15:07.456Z,12.75
2023-09-09T21:17:35.008Z,12.30
2023-09-09T21:20:03.943Z,12.70
2023-09-09T21:22:31.839Z,12.40
2023-09-09T21:25:01.395Z,11.15
2023-09-09T21:27:28.841Z,13.32
2023-09-09T21:29:56.460Z,13.20
2023-09-09T21:32:24.192Z,14.10
2023-09-09T21:37:19.562Z,13.52
2023-09-09T21:39:47.031Z,12.57
2023-09-09T21:42:16.820Z,12.80
2023-09-09T21:44:45.492Z,12.98
2023-09-09T21:47:13.174Z,12.77
2023-09-09T21:49:40.794Z,13.25
2023-09-09T21:52:08.328Z,12.32
2023-09-09T21:54:35.860Z,15.43
2023-09-09T21:57:03.702Z,13.90
2023-09-09T22:01:59.917Z,14.65
2023-09-09T22:04:27.472Z,15.05
2023-09-09T22:06:54.972Z,14.27
2023-09-09T22:09:22.961Z,13.68
2023-09-09T22:11:50.688Z,14.73
2023-09-09T22:14:19.484Z,13.45
2023-09-09T22:16:47.237Z,13.52
2023-09-09T22:21:43.402Z,14.07
2023-09-09T22:24:11.038Z,14.52
2023-09-09T22:26:38.482Z,13.63
2023-09-09T22:29:07.525Z,14.60
2023-09-09T22:31:35.144Z,12.75
2023-09-09T22:34:02.811Z,14.40
2023-09-09T22:36:30.298Z,13.55
2023-09-09T22:38:59.103Z,14.23
2023-09-09T22:41:26.566Z,13.95
2023-09-09T22:43:54.172Z,13.00
2023-09-09T22:46:21.706Z,12.85
2023-09-09T22:48:49.225Z,13.80
2023-09-09T22:51:18.634Z,13.15
2023-09-09T22:53:46.360Z,15.02
2023-09-09T22:56:15.186Z,15.23
2023-09-09T22:58:42.877Z,14.90
2023-09-09T23:03:40.888Z,13.80
2023-09-09T23:08:35.962Z,14.35
2023-09-09T23:11:06.806Z,14.75
2023-09-09T23:13:35.635Z,15.88
2023-09-09T23:16:03.262Z,14.95
2023-09-09T23:18:30.792Z,15.10
2023-09-09T23:20:58.220Z,14.25
2023-09-09T23:23:25.674Z,14.50
2023-09-09T23:25:53.540Z,15.18
2023-09-09T23:28:21.127Z,13.55
2023-09-09T23:30:58.367Z,14.02
2023-09-09T23:33:25.956Z,14.75
2023-09-09T23:35:53.427Z,13.88
2023-09-09T23:38:20.917Z,14.07
2023-09-09T23:40:48.488Z,13.98
2023-09-09T23:43:15.964Z,13.40
2023-09-09T23:45:43.462Z,13.95
2023-09-09T23:48:12.452Z,14.60
2023-09-09T23:50:39.946Z,13.43
2023-09-09T23:53:07.455Z,13.18
2023-09-09T23:55:34.993Z,14.43
2023-09-09T23:58:02.505Z,14.65
